Αρχική σελίδα
METAR-TAF:

METAR-TAF

Αεροδρόμια :

Δαμασκός, Συρία

γεωγραφικό πλάτος: 33-25N, γεωγραφικό μήκος: 036-31E, υψόμετρο: 608 μ

Παρών καιρός

Η αναφορά έγινε 1 ώρα και 2 λεπτά πριν, στις 02:00 UTC
Άνεμος 3 kt από Δ/ΝΔ
Θερμοκρασία 17°C
Υγρασία 77%
Πίεση 1011 hPa
Ορατότητα 10 χλμ και άνω
Δεν υπάρχουν νέφη με βάση κάτω από τα 1500 μ. και δεν υπάρχουν νέφη σωρειτομελανίτες.

METAR: OSDI 240200Z 24003KT CAVOK 17/13 Q1011

Χρόνος: 06:02 (03:02 UTC)

Πρόγνωση Καιρού

Η πρόγνωση ισχύει από τις 24 στις 00 UTC έως τις 25 στις 06 UTC
Άνεμος 15 kt από ΝΔ
Ορατότητα 10 χλμ και άνω
Δεν υπάρχουν νέφη με βάση κάτω από τα 1500 μ. και δεν υπάρχουν νέφη σωρειτομελανίτες.
Προσωρινά
από 24 στις 09 UTC έως τις 24 στις 18 UTC
Άνεμος 15 kt από Δ με ριπές μέχρι 25 kt
Ορατότητα 10 χλμ και άνω
Λίγα νέφη σε ύψος 3000 πόδια

TAF: OSDI 2400/2506 22015KT CAVOK TEMPO 2409/2418 28015G25KT 9999 FEW030

Μετεωρολογικές αναφορές και προγνώσεις για περισσότερα από 4000 αεροδρόμια (δελτία METAR και TAF).

Οι διαθέσιμοι σταθμοί απεικονίζονται στο χάρτη με κίτρινες και κόκκινες κουκκίδες.

Μετακινήστε το ποντίκι πάνω από τις κουκκίδες για να δείτε το όνομα του σταθμού.

Στη συνέχεια, κάντε κλικ για να δείτε τις μετεωρολογικές αναφορές και τις προγνώσεις καιρού.

Για να αλλάξετε το χάρτη: κάντε κλικ στα πράσινα κουμπιά με τον μαύρο σταυρό για να ζουμάρετε, στο πράσινο κουμπί με την παύλα για να αφαιρέσετε το ζουμ ή στα πράσινα βέλη για να αντιπαραβάλλετε χάρτες.


METAR-TAF: